createdAt,value
2022-09-06T00:02:09.012Z,54.06
2022-09-06T00:04:36.808Z,54.12
2022-09-06T00:07:05.629Z,54.05
2022-09-06T00:09:33.334Z,54.19
2022-09-06T00:12:00.977Z,54.13
2022-09-06T00:14:29.065Z,54.12
2022-09-06T00:16:56.953Z,54.22
2022-09-06T00:19:24.945Z,54.21
2022-09-06T00:21:52.733Z,54.22
2022-09-06T00:24:20.344Z,54.27
2022-09-06T00:26:47.954Z,54.28
2022-09-06T00:29:15.642Z,54.21
2022-09-06T00:31:44.149Z,54.32
2022-09-06T00:34:11.826Z,54.29
2022-09-06T00:36:39.538Z,54.51
2022-09-06T00:39:07.196Z,54.50
2022-09-06T00:41:34.889Z,54.51
2022-09-06T00:44:02.890Z,54.44
2022-09-06T00:46:31.856Z,54.59
2022-09-06T00:49:09.756Z,54.56
2022-09-06T00:51:38.208Z,54.64
2022-09-06T00:54:08.108Z,54.68
2022-09-06T00:56:39.225Z,54.63
2022-09-06T00:59:07.416Z,54.63
2022-09-06T01:01:35.328Z,54.58
2022-09-06T01:04:03.647Z,54.65
2022-09-06T01:06:42.388Z,54.74
2022-09-06T01:09:22.928Z,54.77
2022-09-06T01:12:28.336Z,54.81
2022-09-06T01:15:14.548Z,54.93
2022-09-06T01:17:42.104Z,55.08
2022-09-06T01:20:10.109Z,55.07
2022-09-06T01:22:56.090Z,55.14
2022-09-06T01:25:41.912Z,55.35
2022-09-06T01:28:18.622Z,55.31
2022-09-06T01:30:54.036Z,55.38
2022-09-06T01:33:32.630Z,55.33
2022-09-06T01:36:07.003Z,55.46
2022-09-06T01:38:35.329Z,55.71
2022-09-06T01:41:03.171Z,55.75
2022-09-06T01:43:33.608Z,55.70
2022-09-06T01:46:04.344Z,55.81
2022-09-06T01:48:48.101Z,55.82
2022-09-06T01:51:28.776Z,55.90
2022-09-06T01:54:15.710Z,55.93
2022-09-06T01:57:02.030Z,55.88
2022-09-06T01:59:55.209Z,56.06
2022-09-06T02:02:28.245Z,56.05
2022-09-06T02:05:09.671Z,56.09
2022-09-06T02:07:38.921Z,56.28
2022-09-06T02:10:16.314Z,56.26
2022-09-06T02:12:46.035Z,56.36
2022-09-06T02:15:21.793Z,56.33
2022-09-06T02:18:09.921Z,56.37
2022-09-06T02:20:45.759Z,56.50
2022-09-06T02:23:15.351Z,56.60
2022-09-06T02:25:44.362Z,56.74
2022-09-06T02:28:12.094Z,56.91
2022-09-06T02:30:43.591Z,56.95
2022-09-06T02:33:14.953Z,57.05
2022-09-06T02:35:49.814Z,56.90
2022-09-06T02:38:18.624Z,57.04
2022-09-06T02:40:46.846Z,57.14
2022-09-06T02:43:14.737Z,57.15
2022-09-06T02:45:42.656Z,57.27
2022-09-06T02:48:10.509Z,57.16
2022-09-06T02:50:38.146Z,57.29
2022-09-06T02:53:07.174Z,57.45
2022-09-06T02:55:35.059Z,57.40
2022-09-06T02:58:03.657Z,57.28
2022-09-06T03:00:31.605Z,57.50
2022-09-06T03:02:59.633Z,57.59
2022-09-06T03:05:27.880Z,57.70
2022-09-06T03:07:56.529Z,57.50
2022-09-06T03:10:25.927Z,57.71
2022-09-06T03:12:53.719Z,57.78
2022-09-06T03:15:21.784Z,57.87
2022-09-06T03:17:50.110Z,57.86
2022-09-06T03:20:17.852Z,57.97
2022-09-06T03:22:46.085Z,58.04
2022-09-06T03:25:13.986Z,58.00
2022-09-06T03:27:41.588Z,58.02
2022-09-06T03:30:09.842Z,58.08
2022-09-06T03:32:37.449Z,58.27
2022-09-06T03:35:05.690Z,58.26
2022-09-06T03:37:34.140Z,58.44
2022-09-06T03:40:03.324Z,58.24
2022-09-06T03:42:31.082Z,58.41
2022-09-06T03:44:58.834Z,58.60
2022-09-06T03:47:26.513Z,58.55
2022-09-06T03:49:54.303Z,58.67
2022-09-06T03:52:21.946Z,58.59
2022-09-06T03:54:49.999Z,58.63
2022-09-06T03:57:18.437Z,58.79
2022-09-06T03:59:46.511Z,58.75
2022-09-06T04:02:14.304Z,58.74
2022-09-06T04:04:42.003Z,58.70
2022-09-06T04:07:09.912Z,58.78
2022-09-06T04:09:38.121Z,58.80
2022-09-06T04:12:05.901Z,58.92
2022-09-06T04:14:33.545Z,58.84
2022-09-06T04:17:01.469Z,58.85
2022-09-06T04:19:29.177Z,58.93
2022-09-06T04:21:56.943Z,59.07
2022-09-06T04:24:25.133Z,59.11
2022-09-06T04:26:53.199Z,59.17
2022-09-06T04:29:20.935Z,59.21
2022-09-06T04:31:48.735Z,59.32
2022-09-06T04:34:16.564Z,59.33
2022-09-06T04:36:48.191Z,59.35
2022-09-06T04:39:16.972Z,59.32
2022-09-06T04:41:44.618Z,59.59
2022-09-06T04:44:12.430Z,59.41
2022-09-06T04:46:41.717Z,59.51
2022-09-06T04:49:09.415Z,59.76
2022-09-06T04:51:39.997Z,59.82
2022-09-06T04:54:08.250Z,59.76
2022-09-06T04:56:35.939Z,60.01
2022-09-06T04:59:03.632Z,60.13
2022-09-06T05:01:31.472Z,60.23
2022-09-06T05:03:59.800Z,60.09
2022-09-06T05:06:28.353Z,59.99
2022-09-06T05:08:56.073Z,59.99
2022-09-06T05:11:23.848Z,59.89
2022-09-06T05:13:51.922Z,59.72
2022-09-06T05:16:19.710Z,59.75
2022-09-06T05:18:47.417Z,59.56
2022-09-06T05:21:15.884Z,59.63
2022-09-06T05:23:43.688Z,59.51
2022-09-06T05:26:11.396Z,59.47
2022-09-06T05:28:39.057Z,59.31
2022-09-06T05:31:11.921Z,59.28
2022-09-06T05:33:39.783Z,59.18
2022-09-06T05:36:07.955Z,59.12
2022-09-06T05:38:35.643Z,59.16
2022-09-06T05:41:03.497Z,59.01
2022-09-06T05:43:31.282Z,58.92
2022-09-06T05:45:59.458Z,58.77
2022-09-06T05:48:28.229Z,58.62
2022-09-06T05:51:07.192Z,58.51
2022-09-06T05:53:45.493Z,58.40
2022-09-06T05:56:14.353Z,58.11
2022-09-06T05:58:42.149Z,58.00
2022-09-06T06:01:19.772Z,57.99
2022-09-06T06:03:51.983Z,57.49
2022-09-06T06:06:21.023Z,57.36
2022-09-06T06:08:49.102Z,57.04
2022-09-06T06:11:17.382Z,57.00
2022-09-06T06:13:45.484Z,56.85
2022-09-06T06:16:15.177Z,56.58
2022-09-06T06:18:47.648Z,56.35
2022-09-06T06:21:21.526Z,56.17
2022-09-06T06:24:01.057Z,56.02
2022-09-06T06:26:31.759Z,55.68
2022-09-06T06:29:02.040Z,55.41
2022-09-06T06:31:31.705Z,54.79
2022-09-06T06:33:59.490Z,54.83
2022-09-06T06:36:30.682Z,54.65
2022-09-06T06:38:58.830Z,54.39
2022-09-06T06:41:29.051Z,54.12
2022-09-06T06:43:58.392Z,53.89
2022-09-06T06:46:28.362Z,53.55
2022-09-06T06:48:56.617Z,53.22
2022-09-06T06:51:26.728Z,53.02
2022-09-06T06:53:56.773Z,52.84
2022-09-06T06:56:37.453Z,52.59
2022-09-06T06:59:06.980Z,52.01
2022-09-06T07:01:36.084Z,51.72
2022-09-06T07:04:05.505Z,51.26
2022-09-06T07:12:28.834Z,50.61
2022-09-06T07:14:56.516Z,50.18
2022-09-06T07:17:24.233Z,49.79
2022-09-06T07:22:40.409Z,48.95
2022-09-06T07:25:09.805Z,48.26
2022-09-06T07:27:53.063Z,48.23
2022-09-06T07:30:20.880Z,47.53
2022-09-06T07:32:48.971Z,47.18
2022-09-06T07:35:16.701Z,47.11
2022-09-06T07:37:51.903Z,46.63
2022-09-06T07:40:19.792Z,46.51
2022-09-06T07:42:47.739Z,46.28
2022-09-06T07:45:16.099Z,45.46
2022-09-06T07:47:59.442Z,44.64
2022-09-06T07:53:24.770Z,44.76
2022-09-06T07:55:57.608Z,44.35
2022-09-06T07:58:25.576Z,44.09
2022-09-06T08:00:53.314Z,43.75
2022-09-06T08:03:21.241Z,43.32
2022-09-06T08:11:31.681Z,41.87
2022-09-06T08:14:00.914Z,41.86
2022-09-06T08:16:29.327Z,41.99
2022-09-06T08:18:58.782Z,41.45
2022-09-06T08:21:28.664Z,41.27
2022-09-06T08:23:58.360Z,41.14
2022-09-06T08:26:27.216Z,40.80
2022-09-06T08:29:00.111Z,40.49
2022-09-06T08:31:29.521Z,40.17
2022-09-06T08:33:58.140Z,41.17
2022-09-06T08:36:32.363Z,39.60
2022-09-06T08:39:01.545Z,36.68
2022-09-06T08:41:44.775Z,35.86
2022-09-06T08:44:57.006Z,33.36
2022-09-06T08:47:25.553Z,31.88
2022-09-06T08:49:57.677Z,31.00
2022-09-06T08:52:54.438Z,29.52
2022-09-06T08:55:37.876Z,28.31
2022-09-06T08:58:43.165Z,27.50
2022-09-06T09:01:25.404Z,26.25
2022-09-06T09:03:56.305Z,25.04
2022-09-06T09:06:24.822Z,24.36
2022-09-06T09:08:53.251Z,23.76
2022-09-06T09:11:21.867Z,23.65
2022-09-06T09:14:11.570Z,23.53
2022-09-06T09:16:40.014Z,23.46
2022-09-06T09:19:09.345Z,22.99
2022-09-06T09:21:38.348Z,23.24
2022-09-06T09:24:15.982Z,23.20
2022-09-06T09:26:53.758Z,22.40
2022-09-06T09:29:26.707Z,21.34
2022-09-06T09:31:56.020Z,20.30
2022-09-06T09:34:50.994Z,19.29
2022-09-06T09:40:33.478Z,16.76
2022-09-06T09:43:22.066Z,15.47
2022-09-06T09:46:15.611Z,14.90
2022-09-06T09:49:04.685Z,14.28
2022-09-06T09:51:43.909Z,13.46
2022-09-06T09:54:13.940Z,12.16
2022-09-06T09:56:44.338Z,12.10
2022-09-06T09:59:33.198Z,11.25
2022-09-06T10:02:03.068Z,10.63
2022-09-06T10:04:48.994Z,10.44
2022-09-06T10:07:19.711Z,9.79
2022-09-06T10:09:49.359Z,9.72
2022-09-06T10:12:19.470Z,9.10
2022-09-06T10:14:49.272Z,8.82
2022-09-06T10:17:24.260Z,8.57
2022-09-06T10:19:51.907Z,8.25
2022-09-06T10:22:31.330Z,7.74
2022-09-06T10:25:06.764Z,7.59
2022-09-06T10:27:35.916Z,7.54
2022-09-06T10:30:06.737Z,7.53
2022-09-06T10:32:42.905Z,7.41
2022-09-06T10:35:37.396Z,7.19
2022-09-06T10:38:32.883Z,6.70
2022-09-06T10:41:09.507Z,6.43
2022-09-06T10:43:45.578Z,6.35
2022-09-06T10:46:16.414Z,5.96
2022-09-06T10:48:47.392Z,6.57
2022-09-06T10:51:34.566Z,6.54
2022-09-06T10:54:08.555Z,6.89
2022-09-06T10:56:36.867Z,7.00
2022-09-06T10:59:40.014Z,7.32
2022-09-06T11:02:32.777Z,7.48
2022-09-06T11:10:48.183Z,8.12
2022-09-06T11:13:20.424Z,8.23
2022-09-06T11:16:20.497Z,8.26
2022-09-06T11:19:02.178Z,8.59
2022-09-06T11:22:12.152Z,8.45
2022-09-06T11:25:06.155Z,8.19
2022-09-06T11:27:36.794Z,8.72
2022-09-06T11:30:06.839Z,9.22
2022-09-06T11:32:48.873Z,9.89
2022-09-06T11:35:28.612Z,10.33
2022-09-06T11:38:19.340Z,10.64
2022-09-06T11:40:49.286Z,11.19
2022-09-06T11:43:41.538Z,11.94
2022-09-06T11:46:09.407Z,12.56
2022-09-06T11:48:45.085Z,12.73
2022-09-06T11:51:31.250Z,13.40
2022-09-06T11:53:59.203Z,13.73
2022-09-06T11:56:31.324Z,14.15
2022-09-06T11:59:08.292Z,14.50
2022-09-06T12:01:37.301Z,14.91
2022-09-06T12:04:07.345Z,15.08
2022-09-06T12:06:42.872Z,15.50
2022-09-06T12:09:30.504Z,15.90
2022-09-06T12:11:59.063Z,16.20
2022-09-06T12:14:49.196Z,16.50
2022-09-06T12:17:20.812Z,16.86
2022-09-06T12:19:56.079Z,16.95
2022-09-06T12:22:26.805Z,17.32
2022-09-06T12:24:57.104Z,17.56
2022-09-06T12:27:29.675Z,17.97
2022-09-06T12:29:59.805Z,18.37
2022-09-06T12:32:36.213Z,18.62
2022-09-06T12:38:15.899Z,19.11
2022-09-06T12:40:48.685Z,19.59
2022-09-06T12:43:17.853Z,19.84
2022-09-06T12:45:47.315Z,19.83
2022-09-06T12:48:33.655Z,20.04
2022-09-06T12:51:03.480Z,20.05
2022-09-06T12:53:32.099Z,20.28
2022-09-06T12:56:08.785Z,20.35
2022-09-06T12:58:37.671Z,20.68
2022-09-06T13:01:23.125Z,20.79
2022-09-06T13:04:02.853Z,20.89
2022-09-06T13:06:36.516Z,20.86
2022-09-06T13:09:05.676Z,21.14
2022-09-06T13:11:36.839Z,21.18
2022-09-06T13:14:18.607Z,21.17
2022-09-06T13:16:48.755Z,21.50
2022-09-06T13:19:31.898Z,21.56
2022-09-06T13:22:00.426Z,21.95
2022-09-06T13:24:46.910Z,22.14
2022-09-06T13:27:35.787Z,22.40
2022-09-06T13:30:06.959Z,22.59
2022-09-06T13:32:36.356Z,22.77
2022-09-06T13:35:04.936Z,23.07
2022-09-06T13:37:35.618Z,23.10
2022-09-06T13:41:08.994Z,23.12
2022-09-06T13:43:33.413Z,23.32
2022-09-06T13:46:09.960Z,23.43
2022-09-06T13:48:39.581Z,23.76
2022-09-06T13:51:08.234Z,23.79
2022-09-06T13:53:36.407Z,23.68
2022-09-06T13:56:05.058Z,23.77
2022-09-06T13:58:33.183Z,23.93
2022-09-06T14:01:01.502Z,24.14
2022-09-06T14:03:31.782Z,24.33
2022-09-06T14:06:00.405Z,24.37
2022-09-06T14:08:43.866Z,24.47
2022-09-06T14:11:17.588Z,24.54
2022-09-06T14:13:45.397Z,24.73
2022-09-06T14:16:13.457Z,24.62
2022-09-06T14:18:41.511Z,24.37
2022-09-06T14:21:09.372Z,24.44
2022-09-06T14:23:37.169Z,24.49
2022-09-06T14:26:05.931Z,24.44
2022-09-06T14:28:34.097Z,24.67
2022-09-06T14:31:36.916Z,24.65
2022-09-06T14:34:04.570Z,24.79
2022-09-06T14:36:34.619Z,24.48
2022-09-06T14:39:02.372Z,24.54
2022-09-06T14:41:30.379Z,24.26
2022-09-06T14:43:59.405Z,23.99
2022-09-06T14:46:28.029Z,24.26
2022-09-06T14:48:58.379Z,23.95
2022-09-06T14:51:26.285Z,24.01
2022-09-06T14:54:00.395Z,23.98
2022-09-06T14:56:28.193Z,24.02
2022-09-06T14:58:57.498Z,23.96
2022-09-06T15:01:28.616Z,24.23
2022-09-06T15:03:58.769Z,24.02
2022-09-06T15:06:27.615Z,24.29
2022-09-06T15:08:59.365Z,24.51
2022-09-06T15:11:35.375Z,24.35
2022-09-06T15:14:05.130Z,24.44
2022-09-06T15:16:33.252Z,24.80
2022-09-06T15:19:02.875Z,24.71
2022-09-06T15:21:31.705Z,24.97
2022-09-06T15:24:00.817Z,25.13
2022-09-06T15:26:29.393Z,25.01
2022-09-06T15:28:57.447Z,25.31
2022-09-06T15:31:25.482Z,25.41
2022-09-06T15:33:53.886Z,25.23
2022-09-06T15:36:22.061Z,25.42
2022-09-06T15:38:52.229Z,25.57
2022-09-06T15:41:25.206Z,25.71
2022-09-06T15:43:56.718Z,25.79
2022-09-06T15:46:34.938Z,25.79
2022-09-06T15:49:06.544Z,25.89
2022-09-06T15:51:35.371Z,26.13
2022-09-06T15:54:03.356Z,26.21
2022-09-06T15:56:31.113Z,26.13
2022-09-06T15:58:59.005Z,26.26
2022-09-06T16:01:27.058Z,26.24
2022-09-06T16:04:05.551Z,26.44
2022-09-06T16:06:37.158Z,26.63
2022-09-06T16:09:08.106Z,26.68
2022-09-06T16:11:37.094Z,26.79
2022-09-06T16:14:06.667Z,26.99
2022-09-06T16:16:35.904Z,27.04
2022-09-06T16:19:04.373Z,27.14
2022-09-06T16:21:33.672Z,27.18
2022-09-06T16:24:02.914Z,27.50
2022-09-06T16:26:37.711Z,27.86
2022-09-06T16:29:07.917Z,27.95
2022-09-06T16:31:40.104Z,28.29
2022-09-06T16:34:09.752Z,28.50
2022-09-06T16:36:38.280Z,28.75
2022-09-06T16:39:08.019Z,29.10
2022-09-06T16:41:41.171Z,29.37
2022-09-06T16:44:14.447Z,29.70
2022-09-06T16:46:43.800Z,29.95
2022-09-06T16:49:11.579Z,30.18
2022-09-06T16:51:39.406Z,30.54
2022-09-06T16:54:07.212Z,30.87
2022-09-06T16:56:36.058Z,31.14
2022-09-06T16:59:06.836Z,31.43
2022-09-06T17:01:36.263Z,31.75
2022-09-06T17:04:05.527Z,32.06
2022-09-06T17:06:38.366Z,32.37
2022-09-06T17:09:06.217Z,32.60
2022-09-06T17:11:34.538Z,32.97
2022-09-06T17:14:02.332Z,33.21
2022-09-06T17:16:49.083Z,33.58
2022-09-06T17:19:18.124Z,33.96
2022-09-06T17:21:47.768Z,34.21
2022-09-06T17:24:15.721Z,34.49
2022-09-06T17:26:43.644Z,34.76
2022-09-06T17:29:11.789Z,35.10
2022-09-06T17:31:39.902Z,35.35
2022-09-06T17:34:07.843Z,35.69
2022-09-06T17:36:36.501Z,35.97
2022-09-06T17:39:07.729Z,36.24
2022-09-06T17:41:36.548Z,36.51
2022-09-06T17:44:06.870Z,36.73
2022-09-06T17:46:34.705Z,36.97
2022-09-06T17:49:03.284Z,37.17
2022-09-06T17:51:32.789Z,37.35
2022-09-06T17:54:00.693Z,37.66
2022-09-06T17:56:30.333Z,37.80
2022-09-06T17:58:59.416Z,38.07
2022-09-06T18:01:30.962Z,38.36
2022-09-06T18:03:59.637Z,38.62
2022-09-06T18:06:28.859Z,38.88
2022-09-06T18:08:59.849Z,39.07
2022-09-06T18:11:30.057Z,39.24
2022-09-06T18:14:02.124Z,39.44
2022-09-06T18:16:30.728Z,39.58
2022-09-06T18:19:00.817Z,39.85
2022-09-06T18:21:31.027Z,40.06
2022-09-06T18:23:59.054Z,40.24
2022-09-06T18:26:27.288Z,40.51
2022-09-06T18:28:55.396Z,40.62
2022-09-06T18:31:25.115Z,40.85
2022-09-06T18:33:56.317Z,41.15
2022-09-06T18:36:27.526Z,41.24
2022-09-06T18:38:57.809Z,41.30
2022-09-06T18:41:43.981Z,41.63
2022-09-06T18:44:11.711Z,41.86
2022-09-06T18:46:39.526Z,41.99
2022-09-06T18:49:07.390Z,42.07
2022-09-06T18:51:35.486Z,42.24
2022-09-06T18:54:03.333Z,42.38
2022-09-06T18:56:31.373Z,42.77
2022-09-06T18:59:00.666Z,42.88
2022-09-06T19:01:29.968Z,43.12
2022-09-06T19:03:58.505Z,43.24
2022-09-06T19:06:28.154Z,43.28
2022-09-06T19:09:00.948Z,43.50
2022-09-06T19:11:29.369Z,43.58
2022-09-06T19:13:58.350Z,43.75
2022-09-06T19:16:27.807Z,43.91
2022-09-06T19:18:56.923Z,43.96
2022-09-06T19:21:25.578Z,44.25
2022-09-06T19:23:59.459Z,44.58
2022-09-06T19:26:30.875Z,44.68
2022-09-06T19:29:04.804Z,44.74
2022-09-06T19:31:34.872Z,45.01
2022-09-06T19:34:04.029Z,45.09
2022-09-06T19:36:32.288Z,45.22
2022-09-06T19:39:08.293Z,45.39
2022-09-06T19:41:39.955Z,45.34
2022-09-06T19:44:09.041Z,45.51
2022-09-06T19:46:37.661Z,45.71
2022-09-06T19:49:08.146Z,45.70
2022-09-06T19:51:36.872Z,45.90
2022-09-06T19:54:05.437Z,46.15
2022-09-06T19:56:35.137Z,46.35
2022-09-06T19:59:08.809Z,46.41
2022-09-06T20:01:38.086Z,46.48
2022-09-06T20:04:08.253Z,46.61
2022-09-06T20:06:36.640Z,46.90
2022-09-06T20:09:06.715Z,46.99
2022-09-06T20:11:36.002Z,47.13
2022-09-06T20:14:04.084Z,47.27
2022-09-06T20:16:32.553Z,47.34
2022-09-06T20:19:00.705Z,47.36
2022-09-06T20:21:29.720Z,47.57
2022-09-06T20:23:59.383Z,47.61
2022-09-06T20:26:28.333Z,47.75
2022-09-06T20:29:01.626Z,48.06
2022-09-06T20:31:31.127Z,47.97
2022-09-06T20:34:00.681Z,48.07
2022-09-06T20:36:30.156Z,48.36
2022-09-06T20:38:57.941Z,48.35
2022-09-06T20:41:27.280Z,48.40
2022-09-06T20:43:56.146Z,48.59
2022-09-06T20:46:26.640Z,48.71
2022-09-06T20:48:57.566Z,48.80
2022-09-06T20:51:26.040Z,48.84
2022-09-06T20:53:55.905Z,48.90
2022-09-06T20:56:33.625Z,49.00
2022-09-06T20:59:03.284Z,49.06
2022-09-06T21:01:34.368Z,49.13
2022-09-06T21:04:04.120Z,49.21
2022-09-06T21:06:34.418Z,49.36
2022-09-06T21:09:08.337Z,49.42
2022-09-06T21:11:36.393Z,49.50
2022-09-06T21:14:05.664Z,49.53
2022-09-06T21:16:34.020Z,49.78
2022-09-06T21:19:05.203Z,49.71
2022-09-06T21:21:34.618Z,49.74
2022-09-06T21:24:04.838Z,49.77
2022-09-06T21:26:32.789Z,49.80
2022-09-06T21:29:00.481Z,50.03
2022-09-06T21:31:33.073Z,50.14
2022-09-06T21:34:07.523Z,50.25
2022-09-06T21:36:37.292Z,50.29
2022-09-06T21:39:05.821Z,50.31
2022-09-06T21:41:36.974Z,50.43
2022-09-06T21:44:06.910Z,50.50
2022-09-06T21:46:37.124Z,50.53
2022-09-06T21:49:08.278Z,50.74
2022-09-06T21:51:37.898Z,50.82
2022-09-06T21:54:06.102Z,50.86
2022-09-06T21:56:36.350Z,50.91
2022-09-06T21:59:05.689Z,50.87
2022-09-06T22:01:35.432Z,50.93
2022-09-06T22:04:04.627Z,50.89
2022-09-06T22:06:33.554Z,50.78
2022-09-06T22:09:04.332Z,50.81
2022-09-06T22:11:33.911Z,50.91
2022-09-06T22:14:05.842Z,50.97
2022-09-06T22:16:37.645Z,51.06
2022-09-06T22:19:06.648Z,51.01
2022-09-06T22:21:34.896Z,51.17
2022-09-06T22:24:06.269Z,51.02
2022-09-06T22:26:36.560Z,51.06
2022-09-06T22:29:07.279Z,51.13
2022-09-06T22:31:35.676Z,51.13
2022-09-06T22:34:04.031Z,51.34
2022-09-06T22:36:32.112Z,51.31
2022-09-06T22:39:00.801Z,51.35
2022-09-06T22:41:31.048Z,51.29
2022-09-06T22:44:00.417Z,51.37
2022-09-06T22:46:29.023Z,51.39
2022-09-06T22:48:57.154Z,51.50
2022-09-06T22:51:25.048Z,51.48
2022-09-06T22:53:52.785Z,51.47
2022-09-06T22:56:21.134Z,51.47
2022-09-06T22:58:49.815Z,51.68
2022-09-06T23:01:17.714Z,51.59
2022-09-06T23:03:46.873Z,51.72
2022-09-06T23:06:15.058Z,51.76
2022-09-06T23:08:43.010Z,51.83
2022-09-06T23:11:16.494Z,51.95
2022-09-06T23:13:45.823Z,52.03
2022-09-06T23:16:15.357Z,52.12
2022-09-06T23:18:45.056Z,52.17
2022-09-06T23:21:17.029Z,52.20
2022-09-06T23:23:45.836Z,52.34
2022-09-06T23:26:19.868Z,52.35
2022-09-06T23:28:52.032Z,52.53
2022-09-06T23:31:19.974Z,52.44
2022-09-06T23:33:52.049Z,52.56
2022-09-06T23:36:19.784Z,52.54
2022-09-06T23:38:47.559Z,52.67
2022-09-06T23:41:15.720Z,52.73
2022-09-06T23:43:43.867Z,52.70
2022-09-06T23:46:13.118Z,52.81
2022-09-06T23:48:41.022Z,52.84
2022-09-06T23:51:09.330Z,52.87
2022-09-06T23:53:37.124Z,53.08
2022-09-06T23:56:05.787Z,53.09
2022-09-06T23:58:33.848Z,53.14
